createdAt,value
2022-09-13T00:02:21.074Z,1005.382
2022-09-13T00:07:23.693Z,1005.359
2022-09-13T00:17:28.926Z,1005.172
2022-09-13T00:22:31.639Z,1005.128
2022-09-13T00:27:34.329Z,1005.099
2022-09-13T00:32:36.885Z,1004.95
2022-09-13T00:37:39.705Z,1004.723
2022-09-13T00:42:42.359Z,1004.701
2022-09-13T00:47:45.413Z,1004.598
2022-09-13T00:52:48.205Z,1004.499
2022-09-13T00:57:51.007Z,1004.432
2022-09-13T01:02:53.598Z,1004.43
2022-09-13T01:07:56.398Z,1004.404
2022-09-13T01:12:58.866Z,1004.296
2022-09-13T01:18:01.317Z,1004.295
2022-09-13T01:23:04.078Z,1004.286
2022-09-13T01:28:06.461Z,1004.303
2022-09-13T01:33:11.608Z,1004.208
2022-09-13T01:38:14.421Z,1004.286
2022-09-13T01:43:27.634Z,1004.274
2022-09-13T01:48:30.554Z,1004.163
2022-09-13T01:53:33.151Z,1004.131
2022-09-13T02:03:38.348Z,1003.917
2022-09-13T02:08:41.153Z,1003.897
2022-09-13T02:13:43.720Z,1003.822
2022-09-13T02:23:49.531Z,1003.744
2022-09-13T02:29:00.562Z,1003.586
2022-09-13T02:34:02.986Z,1003.493
2022-09-13T02:39:05.713Z,1003.406
2022-09-13T02:44:08.144Z,1003.333
2022-09-13T02:49:10.763Z,1003.405
2022-09-13T02:54:13.457Z,1003.417
2022-09-13T02:59:16.142Z,1003.282
2022-09-13T03:04:18.832Z,1003.141
2022-09-13T03:09:21.706Z,1002.942
2022-09-13T03:14:24.329Z,1002.913
2022-09-13T03:19:27.043Z,1002.911
2022-09-13T03:24:29.761Z,1002.809
2022-09-13T03:34:35.020Z,1002.804
2022-09-13T03:39:37.899Z,1002.783
2022-09-13T03:44:40.492Z,1002.877
2022-09-13T03:49:43.205Z,1002.826
2022-09-13T03:54:46.068Z,1002.695
2022-09-13T03:59:48.622Z,1002.64
2022-09-13T04:04:51.290Z,1002.485
2022-09-13T04:09:53.939Z,1002.49
2022-09-13T04:14:56.786Z,1002.477
2022-09-13T04:19:59.473Z,1002.483
2022-09-13T04:30:04.985Z,1002.244
2022-09-13T04:35:07.614Z,1002.144
2022-09-13T04:40:10.544Z,1002.206
2022-09-13T04:45:13.294Z,1002.14
2022-09-13T04:50:15.792Z,1002.14
2022-09-13T04:55:18.611Z,1002.091
2022-09-13T05:00:21.357Z,1001.974
2022-09-13T05:05:24.378Z,1001.899
2022-09-13T05:10:27.115Z,1001.887
2022-09-13T05:15:29.832Z,1001.845
2022-09-13T05:20:32.478Z,1001.693
2022-09-13T05:25:35.191Z,1001.744
2022-09-13T05:30:41.722Z,1001.803
2022-09-13T05:35:40.556Z,1001.84
2022-09-13T05:40:43.350Z,1001.795
2022-09-13T05:45:46.019Z,1001.843
2022-09-13T05:50:59.051Z,1001.849
2022-09-13T05:55:51.164Z,1001.932
2022-09-13T06:00:53.843Z,1001.967
2022-09-13T06:05:56.418Z,1002.084
2022-09-13T06:10:59.125Z,1002.107
2022-09-13T06:16:01.590Z,1002.129
2022-09-13T06:26:06.861Z,1002.197
2022-09-13T06:36:12.180Z,1002.172
2022-09-13T06:41:14.841Z,1002.183
2022-09-13T06:46:20.544Z,1002.029
2022-09-13T06:51:20.136Z,1002.009
2022-09-13T07:02:21.703Z,1001.642
2022-09-13T07:07:24.289Z,1001.752
2022-09-13T07:12:27.008Z,1001.735
2022-09-13T07:17:31.526Z,1001.556
2022-09-13T07:27:35.361Z,1001.682
2022-09-13T07:32:38.312Z,1001.553
2022-09-13T07:37:40.781Z,1001.544
2022-09-13T07:42:43.633Z,1001.547
2022-09-13T07:47:46.266Z,1001.388
2022-09-13T07:52:48.895Z,1001.534
2022-09-13T07:57:52.114Z,1001.567
2022-09-13T08:02:54.648Z,1001.539
2022-09-13T08:07:57.413Z,1001.523
2022-09-13T08:13:00.185Z,1001.427
2022-09-13T08:18:03.136Z,1001.455
2022-09-13T08:23:05.823Z,1001.564
2022-09-13T08:28:08.627Z,1001.686
2022-09-13T08:33:26.483Z,1001.684
2022-09-13T08:38:29.377Z,1001.744
2022-09-13T08:43:32.060Z,1001.734
2022-09-13T08:48:34.885Z,1001.677
2022-09-13T08:53:37.707Z,1001.602
2022-09-13T08:58:40.468Z,1001.558
2022-09-13T09:03:48.334Z,1001.482
2022-09-13T09:08:50.863Z,1001.4
2022-09-13T09:13:53.565Z,1001.298
2022-09-13T09:18:56.261Z,1001.322
2022-09-13T09:24:17.259Z,1001.395
2022-09-13T09:29:24.839Z,1001.384
2022-09-13T09:34:23.661Z,1001.361
2022-09-13T09:44:47.243Z,1001.497
2022-09-13T09:49:50.123Z,1001.427
2022-09-13T09:54:52.727Z,1001.511
2022-09-13T09:59:55.118Z,1001.405
2022-09-13T10:04:57.643Z,1001.263
2022-09-13T10:10:00.550Z,1001.242
2022-09-13T10:15:03.278Z,1001.228
2022-09-13T10:25:08.621Z,1001.213
2022-09-13T10:30:11.051Z,1001.121
2022-09-13T10:35:13.695Z,1001.147
2022-09-13T10:40:16.249Z,1001.084
2022-09-13T10:45:19.133Z,1000.977
2022-09-13T10:50:22.000Z,1001.05
2022-09-13T10:55:24.506Z,1000.948
2022-09-13T11:00:26.732Z,1001.007
2022-09-13T11:05:29.269Z,1001.039
2022-09-13T11:10:31.856Z,1001.057
2022-09-13T11:15:39.466Z,1001.099
2022-09-13T11:20:36.872Z,1001.003
2022-09-13T11:25:39.787Z,1000.969
2022-09-13T11:30:42.063Z,1001.041
2022-09-13T11:35:44.783Z,1000.999
2022-09-13T11:40:48.025Z,1001.01
2022-09-13T11:45:50.728Z,1000.996
2022-09-13T11:56:51.793Z,1000.895
2022-09-13T12:01:54.418Z,1001.005
2022-09-13T12:06:56.953Z,1000.931
2022-09-13T12:11:59.412Z,1000.941
2022-09-13T12:17:02.237Z,1000.913
2022-09-13T12:22:04.766Z,1000.952
2022-09-13T12:27:07.490Z,1000.963
2022-09-13T12:32:10.279Z,1000.935
2022-09-13T12:37:13.004Z,1000.931
2022-09-13T12:42:15.544Z,1000.936
2022-09-13T12:47:18.324Z,1000.911
2022-09-13T12:52:21.223Z,1000.883
2022-09-13T12:57:24.152Z,1000.855
2022-09-13T13:02:26.865Z,1000.812
2022-09-13T13:07:29.728Z,1000.787
2022-09-13T13:12:32.705Z,1000.71
2022-09-13T13:17:35.303Z,1000.699
2022-09-13T13:22:37.914Z,1000.64
2022-09-13T13:27:42.820Z,1000.633
2022-09-13T13:32:43.143Z,1000.596
2022-09-13T13:37:45.770Z,1000.554
2022-09-13T13:42:48.103Z,1000.548
2022-09-13T13:47:50.899Z,1000.461
2022-09-13T13:52:53.604Z,1000.43
2022-09-13T13:57:56.336Z,1000.439
2022-09-13T14:02:58.911Z,1000.405
2022-09-13T14:08:01.520Z,1000.406
2022-09-13T14:13:04.226Z,1000.403
2022-09-13T14:18:06.914Z,1000.482
2022-09-13T14:23:09.663Z,1000.402
2022-09-13T14:28:12.357Z,1000.447
2022-09-13T14:33:15.311Z,1000.469
2022-09-13T14:38:18.008Z,1000.43
2022-09-13T14:43:20.505Z,1000.432
2022-09-13T14:48:23.192Z,1000.376
2022-09-13T14:53:25.952Z,1000.314
2022-09-13T14:58:28.718Z,1000.238
2022-09-13T15:03:31.334Z,1000.25
2022-09-13T15:08:34.095Z,1000.192
2022-09-13T15:13:36.714Z,1000.126
2022-09-13T15:18:39.301Z,1000.085
2022-09-13T15:23:41.831Z,1000.094
2022-09-13T15:28:44.607Z,1000.068
2022-09-13T15:33:49.460Z,1000.03
2022-09-13T15:38:49.751Z,999.9678
2022-09-13T15:43:52.412Z,999.9494
2022-09-13T15:48:55.052Z,999.9639
2022-09-13T15:53:57.717Z,999.9685
2022-09-13T15:59:00.261Z,1000.06
2022-09-13T16:04:02.636Z,1000.07
2022-09-13T16:09:05.220Z,999.9661
2022-09-13T16:14:07.807Z,999.9678
2022-09-13T16:19:10.788Z,999.9063
2022-09-13T16:24:12.934Z,999.8862
2022-09-13T16:29:15.628Z,999.8805
2022-09-13T16:34:18.307Z,999.9351
2022-09-13T16:39:21.113Z,999.8904
2022-09-13T16:44:23.820Z,999.8401
2022-09-13T16:49:26.398Z,999.8677
2022-09-13T16:54:29.078Z,999.8745
2022-09-13T16:59:31.561Z,999.9205
2022-09-13T17:04:34.340Z,999.8674
2022-09-13T17:09:36.875Z,999.8725
2022-09-13T17:14:39.255Z,999.8878
2022-09-13T17:19:42.082Z,999.9681
2022-09-13T17:24:45.273Z,1000.011
2022-09-13T17:29:48.087Z,999.9913
2022-09-13T17:34:50.686Z,1000.034
2022-09-13T17:39:58.514Z,1000.03
2022-09-13T17:44:56.191Z,1000.09
2022-09-13T17:49:58.993Z,1000.033
2022-09-13T18:00:04.402Z,1000.037
2022-09-13T18:05:09.624Z,1000.039
2022-09-13T18:10:20.403Z,999.9611
2022-09-13T18:15:15.312Z,1000.012
2022-09-13T18:20:17.873Z,1000.101
2022-09-13T18:25:20.383Z,1000.144
2022-09-13T18:30:22.976Z,1000.141
2022-09-13T18:35:25.455Z,1000.173
2022-09-13T18:40:28.151Z,1000.183
2022-09-13T18:45:33.292Z,1000.168
2022-09-13T18:50:35.858Z,1000.198
2022-09-13T18:55:40.029Z,1000.207
2022-09-13T19:00:41.101Z,1000.231
2022-09-13T19:05:43.465Z,1000.246
2022-09-13T19:10:46.096Z,1000.225
2022-09-13T19:15:48.893Z,1000.23
2022-09-13T19:20:51.427Z,1000.267
2022-09-13T19:25:53.770Z,1000.259
2022-09-13T19:30:56.586Z,1000.279
2022-09-13T19:35:59.093Z,1000.309
2022-09-13T19:41:02.143Z,1000.314
2022-09-13T19:46:04.631Z,1000.331
2022-09-13T19:51:07.097Z,1000.37
2022-09-13T19:56:09.778Z,1000.327
2022-09-13T20:01:12.419Z,1000.328
2022-09-13T20:06:14.846Z,1000.328
2022-09-13T20:11:17.547Z,1000.367
2022-09-13T20:16:20.174Z,1000.383
2022-09-13T20:21:22.726Z,1000.395
2022-09-13T20:26:25.214Z,1000.393
2022-09-13T20:31:27.970Z,1000.335
2022-09-13T20:36:30.419Z,1000.295
2022-09-13T20:41:33.186Z,1000.282
2022-09-13T20:46:35.923Z,1000.272
2022-09-13T20:51:38.657Z,1000.273
2022-09-13T20:56:41.392Z,1000.307
2022-09-13T21:01:43.975Z,1000.216
2022-09-13T21:06:46.416Z,1000.136
2022-09-13T21:11:49.100Z,1000.198
2022-09-13T21:16:52.504Z,1000.233
2022-09-13T21:21:54.893Z,1000.298
2022-09-13T21:26:57.819Z,1000.294
2022-09-13T21:32:00.473Z,1000.338
2022-09-13T21:37:03.165Z,1000.357
2022-09-13T21:42:05.644Z,1000.415
2022-09-13T21:47:08.470Z,1000.447
2022-09-13T21:52:11.105Z,1000.476
2022-09-13T21:57:13.775Z,1000.459
2022-09-13T22:02:16.662Z,1000.478
2022-09-13T22:07:19.570Z,1000.468
2022-09-13T22:12:22.204Z,1000.49
2022-09-13T22:17:24.884Z,1000.433
2022-09-13T22:27:30.270Z,1000.455
2022-09-13T22:32:32.932Z,1000.486
2022-09-13T22:37:35.530Z,1000.577
2022-09-13T22:42:40.872Z,1000.614
2022-09-13T22:47:43.789Z,1000.578
2022-09-13T22:52:46.346Z,1000.52
2022-09-13T22:57:49.101Z,1000.522
2022-09-13T23:02:51.608Z,1000.529
2022-09-13T23:07:54.222Z,1000.481
2022-09-13T23:12:59.693Z,1000.587
2022-09-13T23:18:02.386Z,1000.607
2022-09-13T23:28:07.338Z,1000.571
2022-09-13T23:33:10.303Z,1000.577
2022-09-13T23:38:13.015Z,1000.615
2022-09-13T23:43:15.569Z,1000.608
2022-09-13T23:48:18.184Z,1000.557
2022-09-13T23:53:20.962Z,1000.541
2022-09-13T23:58:23.738Z,1000.551
